Time;durP1;ratioP1;P1;durP2;ratioP2;P2;SDS_P1;SDS_P2;PMS_P1;PMS_P2;Temp;Humidity;BMP_temperature;BMP_pressure;BME280_temperature;BME280_humidity;BME280_pressure;Samples;Min_cycle;Max_cycle;Signal;HPM_P1;HPM_P2
2023/12/04 00:01:55;;;;;;;68.18;27.70;;;;;;;;;;5099717;28;20035;-72
2023/12/04 00:04:22;;;;;;;87.60;30.30;;;;;;;;;;5114070;28;20024;-72
2023/12/04 00:06:48;;;;;;;72.82;29.75;;;;;;;;;;5113824;28;20020;-74
2023/12/04 00:09:14;;;;;;;78.00;30.50;;;;;;;;;;5114306;28;20023;-73
2023/12/04 00:11:40;;;;;;;101.60;36.00;;;;;;;;;;5081562;28;20024;-75
2023/12/04 00:14:07;;;;;;;79.13;29.33;;;-1.70;99.90;;;;;;5102148;28;20118;-74
2023/12/04 00:16:36;;;;;;;70.40;29.90;;;-1.70;99.90;;;;;;5113784;28;20030;-74
2023/12/04 00:19:02;;;;;;;80.68;33.13;;;;;;;;;;5113897;28;20095;-72
2023/12/04 00:21:28;;;;;;;92.07;33.72;;;;;;;;;;5113483;28;20020;-72
2023/12/04 00:23:54;;;;;;;74.88;30.75;;;;;;;;;;5113610;28;20019;-74
2023/12/04 00:26:20;;;;;;;75.55;30.40;;;;;;;;;;5113291;28;20477;-72
2023/12/04 00:28:46;;;;;;;84.28;30.75;;;;;;;;;;5101769;28;20020;-73
2023/12/04 00:31:12;;;;;;;92.63;35.50;;;;;;;;;;5096977;28;20016;-73
2023/12/04 00:33:38;;;;;;;83.70;29.27;;;;;;;;;;5104502;28;20038;-73
2023/12/04 00:36:04;;;;;;;66.07;27.65;;;-1.70;99.90;;;;;;5103308;28;20043;-72
2023/12/04 00:38:30;;;;;;;56.30;23.30;;;;;;;;;;5094164;28;20024;-72
2023/12/04 00:40:56;;;;;;;62.70;22.02;;;;;;;;;;5097568;28;20016;-72
2023/12/04 00:43:22;;;;;;;52.33;19.98;;;;;;;;;;5097484;28;20032;-72
2023/12/04 00:45:48;;;;;;;46.47;18.90;;;-1.70;99.90;;;;;;5108210;28;20098;-72
2023/12/04 00:48:14;;;;;;;52.38;19.52;;;-1.70;99.90;;;;;;5099048;28;20481;-72
2023/12/04 00:50:40;;;;;;;68.80;28.50;;;-1.70;99.90;;;;;;5097495;28;20403;-73
2023/12/04 00:53:05;;;;;;;60.08;22.48;;;-1.70;99.90;;;;;;5096941;28;20354;-73
2023/12/04 00:55:31;;;;;;;55.08;21.67;;;-1.80;99.90;;;;;;5097335;28;20016;-71
2023/12/04 00:57:57;;;;;;;37.90;15.15;;;-1.80;99.90;;;;;;5097389;28;20059;-72
2023/12/04 01:00:23;;;;;;;44.63;16.48;;;-1.70;99.90;;;;;;5099848;28;20065;-72
2023/12/04 01:02:48;;;;;;;41.17;15.95;;;-1.90;99.90;;;;;;5117485;28;20043;-73
2023/12/04 01:05:14;;;;;;;43.42;17.60;;;-1.70;99.90;;;;;;5107111;28;20027;-72
2023/12/04 01:07:40;;;;;;;47.45;20.48;;;-1.80;99.90;;;;;;5096867;28;20123;-72
2023/12/04 01:10:06;;;;;;;51.03;21.27;;;-1.80;99.90;;;;;;5096270;28;20024;-73
2023/12/04 01:12:32;;;;;;;64.88;23.15;;;-1.80;99.90;;;;;;5096365;28;20032;-73
2023/12/04 01:14:58;;;;;;;58.17;20.42;;;-1.80;99.90;;;;;;5096614;28;20020;-73
2023/12/04 01:17:23;;;;;;;48.78;20.90;;;-1.80;99.90;;;;;;5091554;28;20050;-73
2023/12/04 01:19:49;;;;;;;62.15;21.63;;;-1.80;99.90;;;;;;5092433;28;20026;-72
2023/12/04 01:22:15;;;;;;;58.47;24.75;;;-1.80;99.90;;;;;;5097019;28;20024;-72
2023/12/04 01:24:41;;;;;;;62.88;26.23;;;-1.80;99.90;;;;;;5097388;28;20345;-73
2023/12/04 01:27:07;;;;;;;76.47;33.60;;;-1.90;99.90;;;;;;5095801;28;20024;-72
2023/12/04 01:29:32;;;;;;;66.78;27.75;;;-1.80;99.90;;;;;;5095807;28;20107;-73
2023/12/04 01:31:58;;;;;;;72.95;26.30;;;-1.80;99.90;;;;;;5095973;28;20032;-71
2023/12/04 01:34:24;;;;;;;80.00;28.42;;;-1.80;99.90;;;;;;5095855;28;20020;-72
2023/12/04 01:36:50;;;;;;;82.97;30.55;;;-1.80;99.90;;;;;;5096534;28;20043;-72
2023/12/04 01:39:15;;;;;;;84.18;30.70;;;-1.80;99.90;;;;;;5096317;28;20020;-72
2023/12/04 01:41:41;;;;;;;66.80;27.80;;;-1.80;99.90;;;;;;5097301;28;20036;-71
2023/12/04 01:44:07;;;;;;;57.22;24.35;;;-1.90;99.90;;;;;;5096142;28;20477;-72
2023/12/04 01:46:33;;;;;;;74.18;26.30;;;-1.80;99.90;;;;;;5110815;28;20081;-72
2023/12/04 01:49:00;;;;;;;64.25;27.30;;;-1.80;99.90;;;;;;5114541;28;20396;-72
2023/12/04 01:51:27;;;;;;;65.15;24.80;;;-1.90;99.90;;;;;;5095602;28;20016;-71
2023/12/04 01:53:53;;;;;;;65.00;23.95;;;-2.00;99.90;;;;;;5096036;28;20504;-72
2023/12/04 01:56:20;;;;;;;54.33;21.52;;;-2.00;99.90;;;;;;5095579;28;20031;-72
2023/12/04 01:58:46;;;;;;;67.05;24.25;;;-2.00;99.90;;;;;;5095600;28;20024;-71
2023/12/04 02:01:12;;;;;;;60.70;24.27;;;-2.10;99.90;;;;;;5093642;28;20024;-72
2023/12/04 02:03:38;;;;;;;52.25;21.75;;;-2.10;99.90;;;;;;5095484;28;20110;-72
2023/12/04 02:06:05;;;;;;;46.38;18.98;;;-2.10;99.90;;;;;;5095351;28;20020;-72
2023/12/04 02:08:32;;;;;;;44.83;19.23;;;-2.10;99.90;;;;;;5078203;28;20146;-72
2023/12/04 02:10:59;;;;;;;65.32;23.67;;;-2.20;99.90;;;;;;5095062;28;20081;-72
2023/12/04 02:13:24;;;;;;;77.88;31.55;;;-2.20;99.90;;;;;;5095319;28;20028;-73
2023/12/04 02:15:54;;;;;;;54.67;23.05;;;-2.20;99.90;;;;;;5094856;28;20404;-71
2023/12/04 02:18:22;;;;;;;55.28;23.20;;;-2.20;99.90;;;;;;5095243;28;20077;-72
2023/12/04 02:20:47;;;;;;;69.65;27.20;;;-2.20;99.90;;;;;;5095186;28;20542;-72
2023/12/04 02:23:13;;;;;;;55.10;23.08;;;-2.20;99.90;;;;;;5094822;28;20106;-72
2023/12/04 02:25:39;;;;;;;70.07;26.33;;;-2.30;99.90;;;;;;5094785;28;20027;-72
2023/12/04 02:28:13;;;;;;;108.10;38.55;;;-2.30;99.90;;;;;;5095062;28;20027;-72
2023/12/04 02:30:43;;;;;;;86.13;34.55;;;-2.30;99.90;;;;;;5095019;28;20022;-72
2023/12/04 02:33:13;;;;;;;82.40;33.00;;;-2.30;99.90;;;;;;5094707;28;20059;-73
2023/12/04 02:35:41;;;;;;;78.47;29.15;;;-2.30;99.90;;;;;;5094777;28;20481;-72
2023/12/04 02:38:07;;;;;;;79.47;29.13;;;-2.40;99.90;;;;;;5094352;28;20020;-72
2023/12/04 02:40:34;;;;;;;68.53;28.48;;;-2.30;99.90;;;;;;5094842;28;20028;-71
2023/12/04 02:43:00;;;;;;;59.20;24.90;;;-2.30;99.90;;;;;;5094642;28;20053;-73
2023/12/04 02:45:26;;;;;;;57.35;22.75;;;-2.30;99.90;;;;;;5094266;28;20024;-71
2023/12/04 02:47:51;;;;;;;57.58;22.02;;;-2.30;99.90;;;;;;5094287;28;20032;-72
2023/12/04 02:50:17;;;;;;;54.50;22.83;;;;;;;;;;5094294;28;20028;-72
2023/12/04 02:52:43;;;;;;;62.30;22.77;;;;;;;;;;5094455;28;20028;-71
2023/12/04 02:55:10;;;;;;;51.42;20.10;;;;;;;;;;5094198;28;20374;-73
2023/12/04 02:57:36;;;;;;;50.47;20.35;;;;;;;;;;5094200;28;20024;-72
2023/12/04 03:00:03;;;;;;;44.53;18.52;;;;;;;;;;5094638;28;20459;-72
2023/12/04 03:02:29;;;;;;;43.28;18.83;;;;;;;;;;5093294;28;20463;-72
2023/12/04 03:04:55;;;;;;;52.42;20.73;;;-2.50;99.90;;;;;;5093659;28;20046;-72
2023/12/04 03:07:23;;;;;;;48.60;22.05;;;;;;;;;;5094309;28;20019;-73
2023/12/04 03:09:49;;;;;;;56.97;23.00;;;;;;;;;;5094211;28;20095;-73
2023/12/04 03:12:15;;;;;;;57.72;24.70;;;;;;;;;;5093490;28;20020;-72
2023/12/04 03:14:42;;;;;;;65.68;28.80;;;;;;;;;;5093922;28;20016;-73
2023/12/04 03:17:08;;;;;;;71.90;30.25;;;;;;;;;;5094145;28;20031;-71
2023/12/04 03:19:33;;;;;;;78.75;32.08;;;-2.60;99.90;;;;;;5093757;28;20047;-72
2023/12/04 03:22:00;;;;;;;66.55;28.40;;;-2.60;99.90;;;;;;5093798;28;20060;-73
2023/12/04 10:06:52;;;;;;;54.85;23.48;;;6.60;78.60;;;;;;5106552;27;20319;-72
2023/12/04 10:18:30;;;;;;;51.80;21.85;;;8.50;65.90;;;;;;5111161;27;20551;-72
2023/12/04 10:20:56;;;;;;;;;;;9.10;65.60;;;;;;5111701;28;20115;-71
2023/12/04 10:23:22;;;;;;;28.98;16.30;;;9.30;65.00;;;;;;5109306;28;19995;-72
2023/12/04 10:25:51;;;;;;;34.50;14.90;;;9.40;63.20;;;;;;5106697;28;20391;-71
2023/12/04 10:28:17;;;;;;;192.68;66.55;;;9.70;62.60;;;;;;5090444;28;20049;-71
2023/12/04 10:30:43;;;;;;;34.10;16.13;;;9.90;62.20;;;;;;5106303;28;20226;-71
2023/12/04 10:33:09;;;;;;;43.00;16.65;;;10.10;61.90;;;;;;5096498;28;20104;-72
2023/12/04 10:35:36;;;;;;;42.42;15.88;;;9.90;60.00;;;;;;5095134;28;20060;-72
2023/12/04 10:38:03;;;;;;;30.00;13.65;;;10.20;59.20;;;;;;5093582;28;20027;-73
2023/12/04 10:40:33;;;;;;;42.65;17.30;;;10.20;71.10;;;;;;5095201;28;20042;-73
2023/12/04 10:43:15;;;;;;;62.97;25.67;;;10.30;58.20;;;;;;5093005;28;20024;-73
2023/12/04 10:45:42;;;;;;;31.38;15.68;;;10.50;58.90;;;;;;5109019;28;20012;-71
2023/12/04 10:48:09;;;;;;;36.20;14.70;;;9.90;57.50;;;;;;5093178;28;20042;-72
2023/12/04 10:50:39;;;;;;;23.45;11.70;;;10.00;58.60;;;;;;5091275;28;20026;-72
2023/12/04 10:53:07;;;;;;;26.73;18.90;;;9.30;57.40;;;;;;5107309;28;20035;-72
2023/12/04 10:55:34;;;;;;;37.13;16.15;;;9.10;58.50;;;;;;5101663;28;20024;-72
2023/12/04 10:58:11;;;;;;;40.75;17.88;;;8.90;59.30;;;;;;5090301;28;20055;-72
2023/12/04 11:01:00;;;;;;;43.20;20.65;;;9.30;59.90;;;;;;5091513;28;20093;-73
2023/12/04 11:03:33;;;;;;;29.08;13.80;;;9.60;58.90;;;;;;5098922;28;20154;-75
2023/12/04 11:06:04;;;;;;;53.17;22.02;;;9.20;57.50;;;;;;5097619;28;20020;-70
2023/12/04 11:08:34;;;;;;;24.50;12.98;;;9.40;56.40;;;;;;5095978;28;20012;-71
2023/12/04 11:11:03;;;;;;;23.13;13.45;;;9.30;55.40;;;;;;5094476;28;20035;-72
2023/12/04 11:13:34;;;;;;;24.88;13.00;;;9.10;55.70;;;;;;5091127;28;20028;-73
2023/12/04 11:16:06;;;;;;;22.77;13.00;;;9.10;54.70;;;;;;5101762;28;20103;-72
2023/12/04 11:18:39;;;;;;;32.20;12.40;;;9.20;54.40;;;;;;5073764;28;20028;-74
2023/12/04 11:21:09;;;;;;;30.70;13.45;;;9.50;54.70;;;;;;5072984;28;20055;-72
2023/12/04 11:23:35;;;;;;;38.88;13.77;;;9.30;54.40;;;;;;5073471;28;20031;-73
2023/12/04 11:26:03;;;;;;;17.75;8.45;;;8.90;53.80;;;;;;5073390;28;20029;-70
2023/12/04 11:28:31;;;;;;;12.32;4.93;;;8.60;53.10;;;;;;5072384;28;20399;-72
2023/12/04 11:30:58;;;;;;;29.10;12.27;;;7.60;52.50;;;;;;5068228;28;20024;-72
2023/12/04 11:33:24;;;;;;;26.08;11.38;;;7.40;54.40;;;;;;5066075;28;20035;-72
2023/12/04 11:35:50;;;;;;;48.03;18.02;;;7.40;54.90;;;;;;5076061;28;20055;-73
2023/12/04 11:38:19;;;;;;;21.58;9.45;;;6.90;55.00;;;;;;5062958;28;20059;-73
2023/12/04 11:40:46;;;;;;;36.08;17.65;;;6.90;68.80;;;;;;5058626;28;20033;-71
2023/12/04 11:43:23;;;;;;;33.83;14.40;;;6.30;64.70;;;;;;5062017;28;20094;-72
2023/12/04 11:45:49;;;;;;;15.93;7.88;;;6.40;54.20;;;;;;5073820;28;20054;-71
2023/12/04 11:48:15;;;;;;;22.52;11.40;;;6.40;56.00;;;;;;5075602;28;20034;-74
2023/12/04 11:50:44;;;;;;;14.27;6.32;;;6.40;57.10;;;;;;5076100;28;20032;-76
2023/12/04 11:53:14;;;;;;;22.55;9.27;;;6.10;54.80;;;;;;5075988;28;20355;-76
2023/12/04 11:55:43;;;;;;;15.65;7.38;;;5.90;56.80;;;;;;5066017;28;20466;-75
2023/12/04 11:58:11;;;;;;;13.98;6.28;;;5.50;57.30;;;;;;5055915;28;20032;-73
2023/12/04 12:00:37;;;;;;;19.98;12.95;;;5.30;57.60;;;;;;5074834;28;20127;-75
2023/12/04 12:03:09;;;;;;;20.88;9.32;;;5.10;58.30;;;;;;5075973;28;20051;-73
2023/12/04 12:05:38;;;;;;;15.45;6.53;;;5.00;58.50;;;;;;5075921;28;20050;-75
2023/12/04 12:08:05;;;;;;;19.20;10.40;;;4.80;59.00;;;;;;5064004;28;20037;-71
2023/12/04 12:10:32;;;;;;;28.30;13.45;;;4.80;59.60;;;;;;5063816;28;20402;-73
2023/12/04 12:12:58;;;;;;;20.30;8.65;;;4.70;62.80;;;;;;5075816;28;20020;-71
2023/12/04 12:15:24;;;;;;;17.83;8.93;;;4.60;61.40;;;;;;5057414;28;20414;-73
2023/12/04 12:17:53;;;;;;;30.65;10.52;;;4.30;82.80;;;;;;5091007;28;20071;-71
2023/12/04 12:20:21;;;;;;;20.92;8.88;;;4.50;84.70;;;;;;5095911;28;20027;-72
2023/12/04 12:22:49;;;;;;;24.05;10.35;;;4.70;84.00;;;;;;5077247;28;20024;-73
2023/12/04 12:25:15;;;;;;;20.17;11.13;;;4.80;80.70;;;;;;5095642;28;20059;-73
2023/12/04 12:27:42;;;;;;;18.77;8.35;;;4.50;61.50;;;;;;5095672;28;20028;-72
2023/12/04 12:30:08;;;;;;;20.63;9.68;;;4.40;62.20;;;;;;5068006;28;20035;-73
2023/12/04 12:32:34;;;;;;;;;;;3.00;83.70;;;;;;5080346;28;20110;-73
2023/12/04 12:35:01;;;;;;;18.67;7.95;;;4.10;90.20;;;;;;5094951;28;20207;-74
2023/12/04 12:37:28;;;;;;;29.52;12.93;;;4.30;64.90;;;;;;5094774;28;20088;-74
2023/12/04 12:39:53;;;;;;;26.75;11.20;;;4.30;91.30;;;;;;5093499;28;20115;-73
2023/12/04 12:42:27;;;;;;;30.90;12.05;;;4.40;90.00;;;;;;5094470;28;20103;-73
2023/12/04 12:44:55;;;;;;;28.27;13.45;;;;;;;;;;5094476;28;20402;-73
2023/12/04 12:47:21;;;;;;;28.63;11.75;;;;;;;;;;5094589;28;20044;-73
2023/12/04 12:49:47;;;;;;;28.42;12.93;;;4.20;84.40;;;;;;5094207;28;20031;-73
2023/12/04 12:52:14;;;;;;;27.60;11.30;;;4.40;71.70;;;;;;5094479;28;20024;-74
2023/12/04 12:54:43;;;;;;;30.50;13.55;;;4.20;69.00;;;;;;5092596;28;20036;-73
2023/12/04 12:57:11;;;;;;;31.15;13.02;;;4.40;70.80;;;;;;5074068;28;20462;-73
2023/12/04 12:59:41;;;;;;;29.20;12.23;;;4.10;64.50;;;;;;5074278;28;20031;-74
2023/12/04 13:02:07;;;;;;;31.63;13.15;;;3.70;75.80;;;;;;5092669;28;20024;-73
2023/12/04 13:04:41;;;;;;;28.63;12.43;;;4.00;66.10;;;;;;5093874;28;20370;-72
2023/12/04 13:07:07;;;;;;;34.05;13.63;;;3.70;76.50;;;;;;5094130;28;20036;-74
2023/12/04 13:09:35;;;;;;;28.83;12.90;;;4.00;65.60;;;;;;5094021;28;20150;-74
2023/12/04 13:12:02;;;;;;;29.77;11.90;;;3.90;65.70;;;;;;5093908;28;20020;-73
2023/12/04 13:14:28;;;;;;;33.63;13.40;;;3.90;66.40;;;;;;5094045;28;20500;-73
2023/12/04 13:16:57;;;;;;;32.95;11.50;;;;;;;;;;5093195;28;20040;-74
2023/12/04 13:19:24;;;;;;;25.10;10.45;;;;;;;;;;5093715;28;20020;-72
2023/12/04 13:21:50;;;;;;;28.55;10.80;;;3.80;91.60;;;;;;5075341;28;20020;-73
2023/12/04 13:24:17;;;;;;;20.20;10.13;;;;;;;;;;5093764;28;20020;-73
2023/12/04 13:26:44;;;;;;;22.40;10.52;;;3.70;64.20;;;;;;5093528;28;20028;-74
2023/12/04 13:29:10;;;;;;;28.15;10.60;;;;;;;;;;5093697;28;20048;-72
2023/12/04 13:31:37;;;;;;;24.85;9.18;;;;;;;;;;5093546;28;20089;-73
2023/12/04 13:34:06;;;;;;;28.95;10.60;;;;;;;;;;5093919;28;20124;-73
2023/12/04 13:36:34;;;;;;;27.38;11.18;;;3.60;63.00;;;;;;5093624;28;20024;-73
2023/12/04 13:39:00;;;;;;;27.65;10.60;;;;;;;;;;5093326;28;20039;-73
2023/12/04 13:44:14;;;;;;;28.23;12.93;;;;;;;;;;5074749;28;20493;-72
2023/12/04 13:46:40;;;;;;;28.60;12.38;;;;;;;;;;5088971;28;20024;-72
2023/12/04 13:49:06;;;;;;;40.97;15.75;;;;;;;;;;5093585;28;20447;-74
2023/12/04 13:51:32;;;;;;;62.53;21.95;;;;;;;;;;5093254;28;20020;-74
2023/12/04 13:54:09;;;;;;;56.03;20.67;;;;;;;;;;5074993;28;20049;-73
2023/12/04 13:56:53;;;;;;;57.80;20.33;;;;;;;;;;5075671;28;20025;-73
2023/12/04 13:59:24;;;;;;;54.17;22.10;;;3.40;66.60;;;;;;5077933;28;20023;-74
2023/12/04 14:01:51;;;;;;;98.50;33.95;;;3.40;67.70;;;;;;5073354;28;20021;-73
2023/12/04 14:04:17;;;;;;;86.32;28.60;;;;;;;;;;5072906;28;20025;-73
2023/12/04 14:06:43;;;;;;;62.72;23.38;;;;;;;;;;5072715;28;20032;-73
2023/12/04 14:09:14;;;;;;;97.72;32.45;;;;;;;;;;5073131;28;20035;-73
2023/12/04 14:11:43;;;;;;;105.63;35.03;;;3.60;89.10;;;;;;5087089;28;20016;-73
2023/12/04 14:14:10;;;;;;;73.38;28.50;;;;;;;;;;5092653;28;20035;-73
2023/12/04 14:16:36;;;;;;;81.93;34.40;;;;;;;;;;5092933;28;20123;-72
2023/12/04 14:19:01;;;;;;;93.65;32.03;;;3.40;75.80;;;;;;5083964;28;20149;-73
2023/12/04 14:21:28;;;;;;;66.38;26.95;;;3.40;72.40;;;;;;5074952;28;20119;-73
2023/12/04 14:23:54;;;;;;;76.53;29.13;;;3.80;78.60;;;;;;5092628;28;20027;-72
2023/12/04 14:26:19;;;;;;;102.22;40.88;;;3.30;77.40;;;;;;5092632;28;20020;-74
2023/12/04 14:28:46;;;;;;;73.10;29.13;;;3.10;75.30;;;;;;5092610;28;20021;-72
2023/12/04 14:31:12;;;;;;;85.00;33.00;;;3.20;72.60;;;;;;5093115;28;20069;-73
2023/12/04 14:33:38;;;;;;;67.95;22.83;;;3.20;73.60;;;;;;5092842;28;20024;-73
2023/12/04 14:36:04;;;;;;;55.88;24.50;;;3.20;90.20;;;;;;5092776;28;20024;-72
2023/12/04 14:38:30;;;;;;;64.78;24.45;;;;;;;;;;5092626;28;20035;-72
2023/12/04 14:40:56;;;;;;;57.25;23.02;;;;;;;;;;5092975;28;20020;-73
2023/12/04 14:43:23;;;;;;;63.60;20.95;;;;;;;;;;5092962;28;20020;-73
2023/12/04 14:45:49;;;;;;;61.75;23.73;;;;;;;;;;5092334;28;20091;-72
2023/12/04 14:48:14;;;;;;;76.75;28.15;;;3.10;94.10;;;;;;5092400;28;20053;-72
2023/12/04 14:50:40;;;;;;;68.45;27.13;;;2.80;99.50;;;;;;5092662;28;20028;-73
